createdAt,value
2023-05-10T00:00:59.978Z,0.00
2023-05-10T00:01:59.986Z,0.00
2023-05-10T00:03:00.006Z,0.00
2023-05-10T00:03:59.955Z,0.00
2023-05-10T00:04:59.895Z,0.00
2023-05-10T00:05:59.967Z,0.00
2023-05-10T00:06:59.883Z,0.00
2023-05-10T00:07:59.877Z,0.00
2023-05-10T00:08:59.873Z,0.00
2023-05-10T00:09:59.822Z,0.00
2023-05-10T00:10:59.832Z,0.00
2023-05-10T00:11:59.855Z,0.00
2023-05-10T00:12:59.854Z,0.00
2023-05-10T00:13:59.809Z,0.00
2023-05-10T00:14:59.775Z,0.00
2023-05-10T00:15:59.771Z,0.00
2023-05-10T00:16:59.793Z,0.00
2023-05-10T00:17:59.842Z,0.00
2023-05-10T00:18:59.766Z,0.00
2023-05-10T00:19:59.738Z,0.00
2023-05-10T00:20:59.717Z,0.00
2023-05-10T00:21:59.694Z,0.00
2023-05-10T00:22:59.734Z,0.00
2023-05-10T00:23:59.673Z,0.00
2023-05-10T00:24:59.685Z,0.00
2023-05-10T00:25:59.645Z,0.00
2023-05-10T00:26:59.669Z,0.00
2023-05-10T00:27:59.648Z,0.00
2023-05-10T00:28:59.644Z,0.00
2023-05-10T00:29:59.634Z,0.00
2023-05-10T00:30:59.602Z,0.00
2023-05-10T00:31:59.652Z,0.00
2023-05-10T00:32:59.632Z,0.00
2023-05-10T00:33:59.566Z,0.00
2023-05-10T00:34:59.597Z,0.00
2023-05-10T00:35:59.564Z,0.00
2023-05-10T00:36:59.526Z,0.00
2023-05-10T00:37:59.498Z,0.00
2023-05-10T00:38:59.507Z,0.00
2023-05-10T00:39:59.513Z,0.00
2023-05-10T00:40:59.475Z,0.00
2023-05-10T00:41:59.469Z,0.00
2023-05-10T00:42:59.464Z,0.00
2023-05-10T00:43:59.453Z,0.00
2023-05-10T00:44:59.503Z,0.00
2023-05-10T00:45:59.448Z,0.00
2023-05-10T00:46:59.413Z,0.00
2023-05-10T00:47:59.407Z,0.00
2023-05-10T00:48:59.408Z,0.00
2023-05-10T00:49:59.363Z,0.00
2023-05-10T00:50:59.371Z,0.00
2023-05-10T00:51:59.348Z,0.00
2023-05-10T00:52:59.357Z,0.00
2023-05-10T00:53:59.330Z,0.00
2023-05-10T00:54:59.327Z,0.00
2023-05-10T00:55:59.345Z,0.00
2023-05-10T00:56:59.295Z,0.00
2023-05-10T00:57:59.284Z,0.00
2023-05-10T00:58:59.295Z,0.00
2023-05-10T00:59:59.255Z,0.00
2023-05-10T01:00:59.332Z,0.00
2023-05-10T01:01:59.259Z,0.00
2023-05-10T01:02:59.366Z,0.00
2023-05-10T01:03:59.220Z,0.00
2023-05-10T01:04:59.278Z,0.00
2023-05-10T01:05:59.184Z,0.00
2023-05-10T01:06:59.192Z,0.00
2023-05-10T01:07:59.179Z,0.00
2023-05-10T01:08:59.161Z,0.00
2023-05-10T01:09:59.202Z,0.00
2023-05-10T01:10:59.115Z,0.00
2023-05-10T01:11:59.161Z,0.00
2023-05-10T01:12:59.181Z,0.00
2023-05-10T01:13:59.091Z,0.00
2023-05-10T01:14:59.078Z,0.00
2023-05-10T01:15:59.138Z,0.00
2023-05-10T01:16:59.113Z,0.00
2023-05-10T01:17:59.092Z,0.00
2023-05-10T01:18:59.028Z,0.00
2023-05-10T01:19:59.025Z,0.00
2023-05-10T01:20:59.003Z,0.00
2023-05-10T01:21:59.045Z,0.00
2023-05-10T01:22:59.052Z,0.00
2023-05-10T01:23:58.979Z,0.00
2023-05-10T01:24:58.953Z,0.00
2023-05-10T01:25:58.935Z,0.00
2023-05-10T01:26:58.936Z,0.00
2023-05-10T01:27:58.940Z,0.00
2023-05-10T01:28:58.975Z,0.00
2023-05-10T01:30:14.126Z,0.00
2023-05-10T01:30:59.930Z,0.00
2023-05-10T01:31:58.892Z,0.00
2023-05-10T01:32:58.925Z,0.00
2023-05-10T01:33:58.900Z,0.00
2023-05-10T01:34:58.865Z,0.00
2023-05-10T01:35:58.879Z,0.00
2023-05-10T01:36:58.839Z,0.00
2023-05-10T01:37:58.842Z,0.00
2023-05-10T01:38:58.855Z,0.00
2023-05-10T01:39:58.794Z,0.00
2023-05-10T01:40:58.772Z,0.00
2023-05-10T01:41:58.785Z,0.00
2023-05-10T01:42:58.753Z,0.00
2023-05-10T01:43:58.749Z,0.00
2023-05-10T01:44:58.744Z,0.00
2023-05-10T01:45:58.758Z,0.00
2023-05-10T01:46:58.849Z,0.00
2023-05-10T01:47:58.729Z,0.00
2023-05-10T01:48:58.711Z,0.00
2023-05-10T01:49:58.681Z,0.00
2023-05-10T01:50:58.661Z,0.00
2023-05-10T01:51:58.626Z,0.00
2023-05-10T01:52:58.654Z,0.00
2023-05-10T01:53:58.648Z,0.00
2023-05-10T01:54:58.614Z,0.00
2023-05-10T01:55:58.612Z,0.00
2023-05-10T01:56:58.585Z,0.00
2023-05-10T01:57:58.602Z,0.00
2023-05-10T01:58:58.573Z,0.00
2023-05-10T01:59:58.572Z,0.00
2023-05-10T02:00:58.555Z,0.00
2023-05-10T02:01:58.563Z,0.00
2023-05-10T02:02:58.591Z,0.00
2023-05-10T02:03:58.556Z,0.00
2023-05-10T02:04:58.521Z,0.00
2023-05-10T02:05:58.469Z,0.00
2023-05-10T02:06:58.481Z,0.00
2023-05-10T02:07:58.485Z,0.00
2023-05-10T02:08:58.444Z,0.00
2023-05-10T02:09:58.448Z,0.00
2023-05-10T02:10:58.757Z,0.00
2023-05-10T02:11:58.412Z,0.00
2023-05-10T02:12:58.437Z,0.00
2023-05-10T02:13:58.395Z,0.00
2023-05-10T02:14:58.401Z,0.00
2023-05-10T02:15:58.403Z,0.00
2023-05-10T02:16:58.392Z,0.00
2023-05-10T02:17:58.419Z,0.00
2023-05-10T02:18:58.326Z,0.00
2023-05-10T02:19:58.333Z,0.00
2023-05-10T02:20:58.324Z,0.00
2023-05-10T02:21:58.309Z,0.00
2023-05-10T02:22:58.333Z,0.00
2023-05-10T02:23:58.295Z,0.00
2023-05-10T02:24:58.250Z,0.00
2023-05-10T02:25:58.242Z,0.00
2023-05-10T02:26:58.236Z,0.00
2023-05-10T02:27:58.280Z,0.00
2023-05-10T02:28:58.227Z,0.00
2023-05-10T02:29:58.230Z,0.00
2023-05-10T02:30:58.190Z,0.00
2023-05-10T02:31:58.288Z,0.00
2023-05-10T02:32:58.214Z,0.00
2023-05-10T02:33:58.183Z,0.00
2023-05-10T02:34:58.195Z,0.00
2023-05-10T02:35:58.133Z,0.00
2023-05-10T02:36:58.122Z,0.00
2023-05-10T02:37:58.119Z,0.00
2023-05-10T02:38:58.167Z,0.00
2023-05-10T02:39:58.100Z,0.00
2023-05-10T02:40:58.080Z,0.00
2023-05-10T02:41:58.077Z,0.00
2023-05-10T02:42:58.041Z,0.00
2023-05-10T02:43:58.049Z,0.00
2023-05-10T02:44:58.087Z,0.00
2023-05-10T02:45:58.081Z,0.00
2023-05-10T02:46:58.023Z,0.00
2023-05-10T02:47:58.048Z,0.00
2023-05-10T02:48:57.982Z,0.00
2023-05-10T02:49:58.003Z,0.00
2023-05-10T02:50:57.996Z,0.00
2023-05-10T02:51:57.949Z,0.00
2023-05-10T02:52:57.968Z,0.00
2023-05-10T02:53:57.912Z,4.00
2023-05-10T02:54:57.937Z,4.00
2023-05-10T02:55:57.926Z,0.00
2023-05-10T02:56:57.879Z,0.00
2023-05-10T02:57:57.908Z,0.00
2023-05-10T02:58:57.863Z,0.00
2023-05-10T02:59:57.881Z,4.00
2023-05-10T03:00:57.898Z,0.00
2023-05-10T03:01:57.923Z,4.00
2023-05-10T03:02:57.824Z,4.00
2023-05-10T03:03:57.804Z,4.00
2023-05-10T03:04:57.944Z,4.00
2023-05-10T03:05:57.799Z,4.00
2023-05-10T03:06:57.813Z,4.00
2023-05-10T03:07:57.783Z,4.00
2023-05-10T03:08:57.768Z,8.00
2023-05-10T03:09:57.751Z,8.00
2023-05-10T03:10:57.738Z,8.00
2023-05-10T03:11:57.723Z,12.00
2023-05-10T03:12:57.804Z,12.00
2023-05-10T03:13:57.693Z,16.00
2023-05-10T03:14:57.692Z,16.00
2023-05-10T03:15:57.774Z,20.00
2023-05-10T03:16:57.658Z,20.00
2023-05-10T03:17:57.668Z,28.00
2023-05-10T03:18:57.661Z,28.00
2023-05-10T03:19:57.616Z,36.00
2023-05-10T03:20:57.621Z,40.00
2023-05-10T03:21:57.679Z,44.00
2023-05-10T03:22:57.598Z,52.00
2023-05-10T03:23:57.609Z,60.00
2023-05-10T03:24:57.608Z,68.00
2023-05-10T03:25:57.560Z,72.00
2023-05-10T03:26:57.561Z,80.00
2023-05-10T03:27:57.564Z,88.00
2023-05-10T03:28:57.543Z,100.00
2023-05-10T03:29:57.514Z,112.00
2023-05-10T03:30:57.702Z,120.00
2023-05-10T03:31:57.552Z,132.00
2023-05-10T03:32:57.564Z,144.00
2023-05-10T03:33:57.473Z,160.00
2023-05-10T03:34:57.445Z,176.00
2023-05-10T03:35:57.472Z,200.00
2023-05-10T03:36:57.463Z,216.00
2023-05-10T03:37:57.440Z,240.00
2023-05-10T03:38:57.425Z,260.00
2023-05-10T03:39:57.417Z,288.00
2023-05-10T03:40:57.368Z,312.00
2023-05-10T03:41:57.394Z,332.00
2023-05-10T03:42:57.365Z,352.00
2023-05-10T03:43:57.369Z,368.00
2023-05-10T03:44:57.337Z,392.00
2023-05-10T03:45:57.315Z,408.00
2023-05-10T03:46:57.455Z,420.00
2023-05-10T03:47:57.356Z,428.00
2023-05-10T03:48:57.293Z,440.00
2023-05-10T03:49:57.309Z,452.00
2023-05-10T03:50:57.285Z,464.00
2023-05-10T03:51:57.309Z,480.00
2023-05-10T03:52:57.262Z,492.00
2023-05-10T03:53:57.244Z,508.00
2023-05-10T03:54:57.275Z,500.00
2023-05-10T03:55:57.207Z,492.00
2023-05-10T03:56:57.185Z,496.00
2023-05-10T03:57:57.254Z,508.00
2023-05-10T03:58:57.190Z,524.00
2023-05-10T03:59:57.162Z,536.00
2023-05-10T04:00:57.162Z,540.00
2023-05-10T04:01:57.215Z,540.00
2023-05-10T04:02:57.308Z,540.00
2023-05-10T04:03:57.242Z,532.00
2023-05-10T04:04:57.094Z,544.00
2023-05-10T04:05:57.124Z,560.00
2023-05-10T04:06:57.084Z,564.00
2023-05-10T04:07:57.114Z,572.00
2023-05-10T04:08:57.048Z,596.00
2023-05-10T04:09:57.054Z,628.00
2023-05-10T04:10:57.018Z,664.00
2023-05-10T04:11:57.029Z,708.00
2023-05-10T04:12:57.081Z,752.00
2023-05-10T04:13:56.998Z,792.00
2023-05-10T04:14:56.993Z,840.00
2023-05-10T04:15:56.996Z,888.00
2023-05-10T04:16:57.036Z,940.00
2023-05-10T04:17:56.969Z,996.00
2023-05-10T04:18:56.980Z,1052.00
2023-05-10T04:19:56.938Z,1104.00
2023-05-10T04:20:56.938Z,1152.00
2023-05-10T04:21:56.905Z,1180.00
2023-05-10T04:22:56.902Z,1212.00
2023-05-10T04:23:56.894Z,1244.00
2023-05-10T04:24:56.910Z,1268.00
2023-05-10T04:25:56.867Z,1280.00
2023-05-10T04:26:57.874Z,1276.00
2023-05-10T04:27:56.843Z,1260.00
2023-05-10T04:28:56.879Z,1260.00
2023-05-10T04:29:56.822Z,1280.00
2023-05-10T04:30:56.865Z,1324.00
2023-05-10T04:31:56.790Z,1364.00
2023-05-10T04:32:56.818Z,1400.00
2023-05-10T04:33:56.828Z,1420.00
2023-05-10T04:34:56.761Z,1424.00
2023-05-10T04:35:56.782Z,1424.00
2023-05-10T04:36:56.725Z,1420.00
2023-05-10T04:37:56.726Z,1416.00
2023-05-10T04:38:56.769Z,1424.00
2023-05-10T04:39:56.692Z,1440.00
2023-05-10T04:40:56.721Z,1460.00
2023-05-10T04:41:56.696Z,1504.00
2023-05-10T04:42:56.673Z,1544.00
2023-05-10T04:43:56.698Z,1588.00
2023-05-10T04:44:56.630Z,1628.00
2023-05-10T04:45:56.651Z,1672.00
2023-05-10T04:46:56.611Z,1732.00
2023-05-10T04:47:56.639Z,1808.00
2023-05-10T04:48:56.613Z,1892.00
2023-05-10T04:49:56.609Z,1980.00
2023-05-10T04:50:56.574Z,2076.00
2023-05-10T04:51:56.574Z,2164.00
2023-05-10T04:52:56.550Z,2268.00
2023-05-10T04:54:05.273Z,2396.00
2023-05-10T04:54:57.584Z,2504.00
2023-05-10T04:55:56.513Z,2600.00
2023-05-10T04:56:56.509Z,2644.00
2023-05-10T04:57:56.476Z,2644.00
2023-05-10T04:58:56.486Z,2544.00
2023-05-10T04:59:56.481Z,2368.00
2023-05-10T05:00:56.483Z,2228.00
2023-05-10T05:01:56.480Z,2200.00
2023-05-10T05:02:56.509Z,2260.00
2023-05-10T05:03:56.559Z,2348.00
2023-05-10T05:04:56.428Z,2432.00
2023-05-10T05:05:56.434Z,2524.00
2023-05-10T05:06:56.386Z,2656.00
2023-05-10T05:07:56.376Z,2784.00
2023-05-10T05:08:56.378Z,2892.00
2023-05-10T05:09:56.364Z,2944.00
2023-05-10T05:10:56.330Z,2876.00
2023-05-10T05:11:56.349Z,2756.00
2023-05-10T05:12:56.329Z,2704.00
2023-05-10T05:13:56.311Z,2716.00
2023-05-10T05:14:56.275Z,2740.00
2023-05-10T05:15:56.328Z,2800.00
2023-05-10T05:16:56.298Z,2908.00
2023-05-10T05:17:56.277Z,3020.00
2023-05-10T05:18:56.233Z,3156.00
2023-05-10T05:19:56.248Z,3292.00
2023-05-10T05:20:56.215Z,3372.00
2023-05-10T05:21:56.266Z,3424.00
2023-05-10T05:22:56.201Z,3484.00
2023-05-10T05:23:56.189Z,3564.00
2023-05-10T05:24:56.175Z,3632.00
2023-05-10T05:25:56.146Z,3628.00
2023-05-10T05:26:56.154Z,3604.00
2023-05-10T05:27:56.194Z,3560.00
2023-05-10T05:28:56.122Z,3548.00
2023-05-10T05:29:56.140Z,3568.00
2023-05-10T05:30:56.140Z,3656.00
2023-05-10T05:31:56.117Z,3808.00
2023-05-10T05:32:56.203Z,3980.00
2023-05-10T05:33:56.061Z,4184.00
2023-05-10T05:34:56.098Z,4384.00
2023-05-10T05:35:56.038Z,4540.00
2023-05-10T05:36:56.089Z,4680.00
2023-05-10T05:37:56.034Z,4900.00
2023-05-10T05:38:56.026Z,5156.00
2023-05-10T05:39:56.057Z,5388.00
2023-05-10T05:40:55.996Z,5612.00
2023-05-10T05:41:56.005Z,5720.00
2023-05-10T05:42:55.988Z,5728.00
2023-05-10T05:43:55.975Z,5580.00
2023-05-10T05:44:55.974Z,5352.00
2023-05-10T05:45:56.014Z,5060.00
2023-05-10T05:46:55.937Z,4808.00
2023-05-10T05:47:56.050Z,4712.00
2023-05-10T05:48:55.896Z,4732.00
2023-05-10T05:49:55.892Z,4924.00
2023-05-10T05:50:55.866Z,5204.00
2023-05-10T05:51:56.928Z,5512.00
2023-05-10T05:52:55.871Z,5864.00
2023-05-10T05:53:55.825Z,6256.00
2023-05-10T05:54:55.996Z,6780.00
2023-05-10T05:55:55.847Z,7304.00
2023-05-10T05:56:55.836Z,7716.00
2023-05-10T05:57:55.794Z,8000.00
2023-05-10T05:58:55.773Z,8184.00
2023-05-10T05:59:55.761Z,8220.00
2023-05-10T06:00:55.770Z,8232.00
2023-05-10T06:01:55.872Z,8252.00
2023-05-10T06:02:55.842Z,8212.00
2023-05-10T06:03:55.852Z,8124.00
2023-05-10T06:04:55.704Z,7956.00
2023-05-10T06:05:55.694Z,7676.00
2023-05-10T06:06:55.765Z,7332.00
2023-05-10T06:07:55.676Z,7060.00
2023-05-10T06:08:55.676Z,6884.00
2023-05-10T06:09:55.679Z,6768.00
2023-05-10T06:10:55.633Z,6832.00
2023-05-10T06:11:55.636Z,7056.00
2023-05-10T06:12:55.719Z,7260.00
2023-05-10T06:13:55.612Z,7588.00
2023-05-10T06:14:55.602Z,8004.00
2023-05-10T06:15:55.582Z,8328.00
2023-05-10T06:16:55.791Z,8468.00
2023-05-10T06:17:55.606Z,8448.00
2023-05-10T06:18:55.561Z,8332.00
2023-05-10T06:19:55.543Z,8196.00
2023-05-10T06:20:55.551Z,8120.00
2023-05-10T06:21:55.524Z,8408.00
2023-05-10T06:22:55.548Z,8756.00
2023-05-10T06:23:55.506Z,8876.00
2023-05-10T06:24:55.487Z,8352.00
2023-05-10T06:25:55.494Z,7612.00
2023-05-10T06:26:55.459Z,7092.00
2023-05-10T06:27:55.465Z,6800.00
2023-05-10T06:28:55.468Z,7260.00
2023-05-10T06:30:02.111Z,7380.00
2023-05-10T06:30:56.411Z,7164.00
2023-05-10T06:31:55.573Z,6792.00
2023-05-10T06:32:55.481Z,6528.00
2023-05-10T06:33:56.766Z,5980.00
2023-05-10T06:34:55.410Z,5280.00
2023-05-10T06:35:55.358Z,4656.00
2023-05-10T06:36:55.351Z,4300.00
2023-05-10T06:37:55.326Z,4232.00
2023-05-10T06:38:55.364Z,4524.00
2023-05-10T06:39:55.326Z,4936.00
2023-05-10T06:40:55.293Z,5296.00
2023-05-10T06:41:55.275Z,5432.00
2023-05-10T06:42:55.275Z,5384.00
2023-05-10T06:43:55.268Z,5088.00
2023-05-10T06:44:55.295Z,4708.00
2023-05-10T06:45:55.260Z,4392.00
2023-05-10T06:46:55.257Z,4100.00
2023-05-10T06:47:55.269Z,3964.00
2023-05-10T06:48:55.225Z,3976.00
2023-05-10T06:49:55.177Z,4076.00
2023-05-10T06:50:55.222Z,4040.00
2023-05-10T06:51:55.167Z,3840.00
2023-05-10T06:52:55.163Z,3744.00
2023-05-10T06:53:55.147Z,3808.00
2023-05-10T06:54:55.187Z,4012.00
2023-05-10T06:55:55.167Z,4180.00
2023-05-10T06:56:55.156Z,4368.00
2023-05-10T06:57:55.121Z,4512.00
2023-05-10T06:58:55.138Z,4536.00
2023-05-10T06:59:55.076Z,4328.00
2023-05-10T07:00:55.162Z,3900.00
2023-05-10T07:01:55.194Z,3808.00
2023-05-10T07:02:55.099Z,3996.00
2023-05-10T07:03:55.028Z,4260.00
2023-05-10T07:04:55.150Z,4608.00
2023-05-10T07:05:55.005Z,4852.00
2023-05-10T07:06:55.015Z,4952.00
2023-05-10T07:07:54.992Z,5240.00
2023-05-10T07:08:55.031Z,5360.00
2023-05-10T07:09:54.965Z,5720.00
2023-05-10T07:10:54.955Z,6056.00
2023-05-10T07:11:54.926Z,6412.00
2023-05-10T07:12:55.002Z,6536.00
2023-05-10T07:13:54.930Z,6668.00
2023-05-10T07:14:54.905Z,6984.00
2023-05-10T07:15:54.945Z,7260.00
2023-05-10T07:16:54.872Z,7580.00
2023-05-10T07:17:55.025Z,7992.00
2023-05-10T07:18:54.849Z,8308.00
2023-05-10T07:19:54.866Z,8508.00
2023-05-10T07:20:54.883Z,9136.00
2023-05-10T07:21:54.827Z,9968.00
2023-05-10T07:22:54.869Z,10052.00
2023-05-10T07:23:54.800Z,9724.00
2023-05-10T07:24:54.796Z,9736.00
2023-05-10T07:25:54.861Z,10280.00
2023-05-10T07:26:54.766Z,11336.00
2023-05-10T07:27:54.795Z,12444.00
2023-05-10T07:28:54.746Z,13428.00
2023-05-10T07:29:54.731Z,14096.00
2023-05-10T07:30:54.800Z,14484.00
2023-05-10T07:31:56.493Z,14476.00
2023-05-10T07:32:54.851Z,14208.00
2023-05-10T07:33:54.685Z,13696.00
2023-05-10T07:34:54.713Z,12984.00
2023-05-10T07:35:54.663Z,12212.00
2023-05-10T07:36:54.676Z,11480.00
2023-05-10T07:37:54.675Z,10932.00
2023-05-10T07:38:54.657Z,10672.00
2023-05-10T07:39:54.612Z,10528.00
2023-05-10T07:40:54.631Z,10384.00
2023-05-10T07:41:54.584Z,10008.00
2023-05-10T07:42:54.576Z,9480.00
2023-05-10T07:43:54.624Z,8960.00
2023-05-10T07:44:54.557Z,8604.00
2023-05-10T07:45:56.262Z,8412.00
2023-05-10T07:46:54.551Z,8316.00
2023-05-10T07:47:54.576Z,8180.00
2023-05-10T07:48:54.579Z,7996.00
2023-05-10T07:49:54.496Z,7768.00
2023-05-10T07:50:54.521Z,7632.00
2023-05-10T07:51:54.500Z,7700.00
2023-05-10T07:52:54.470Z,8160.00
2023-05-10T07:53:54.459Z,8932.00
2023-05-10T07:54:54.471Z,9740.00
2023-05-10T07:55:54.495Z,10404.00
2023-05-10T07:56:54.460Z,10772.00
2023-05-10T07:57:54.414Z,10856.00
2023-05-10T07:58:54.412Z,10656.00
2023-05-10T07:59:54.408Z,10816.00
2023-05-10T08:00:54.394Z,11188.00
2023-05-10T08:01:54.397Z,11300.00
2023-05-10T08:02:54.545Z,11624.00
2023-05-10T08:03:54.631Z,12180.00
2023-05-10T08:04:54.390Z,12980.00
2023-05-10T08:05:54.316Z,13884.00
2023-05-10T08:06:54.305Z,14472.00
2023-05-10T08:07:54.304Z,15028.00
2023-05-10T08:08:54.291Z,14968.00
2023-05-10T08:09:54.290Z,14560.00
2023-05-10T08:10:54.258Z,13968.00
2023-05-10T08:11:54.265Z,13488.00
2023-05-10T08:12:54.237Z,13264.00
2023-05-10T08:13:54.237Z,13196.00
2023-05-10T08:14:54.221Z,13288.00
2023-05-10T08:15:54.283Z,13520.00
2023-05-10T08:16:54.199Z,13772.00
2023-05-10T08:17:54.209Z,14084.00
2023-05-10T08:18:54.174Z,14544.00
2023-05-10T08:19:54.161Z,14932.00
2023-05-10T08:20:54.149Z,15224.00
2023-05-10T08:21:54.174Z,15332.00
2023-05-10T08:22:54.121Z,15292.00
2023-05-10T08:23:54.145Z,15248.00
2023-05-10T08:24:54.079Z,15204.00
2023-05-10T08:25:54.075Z,15192.00
2023-05-10T08:26:54.112Z,15180.00
2023-05-10T08:27:54.050Z,15044.00
2023-05-10T08:28:54.061Z,14724.00
2023-05-10T08:29:54.020Z,14256.00
2023-05-10T08:30:54.063Z,13360.00
2023-05-10T08:31:54.070Z,12440.00
2023-05-10T08:32:54.025Z,12068.00
2023-05-10T08:33:53.992Z,12192.00
2023-05-10T08:34:54.004Z,12400.00
2023-05-10T08:35:53.975Z,12624.00
2023-05-10T08:36:53.959Z,12656.00
2023-05-10T08:37:54.006Z,12492.00
2023-05-10T08:38:53.985Z,12136.00
2023-05-10T08:39:53.920Z,11952.00
2023-05-10T08:40:53.922Z,12148.00
2023-05-10T08:41:53.894Z,12340.00
2023-05-10T08:42:53.878Z,12296.00
2023-05-10T08:43:53.910Z,11952.00
2023-05-10T08:44:53.906Z,11932.00
2023-05-10T08:45:53.914Z,12280.00
2023-05-10T08:46:53.891Z,12552.00
2023-05-10T08:47:53.904Z,12596.00
2023-05-10T08:48:53.856Z,12532.00
2023-05-10T08:49:53.821Z,12460.00
2023-05-10T08:50:53.837Z,12820.00
2023-05-10T08:51:53.803Z,13404.00
2023-05-10T08:52:53.758Z,13828.00
2023-05-10T08:53:53.781Z,14168.00
2023-05-10T08:54:53.798Z,14612.00
2023-05-10T08:55:53.727Z,14332.00
2023-05-10T08:56:53.724Z,13532.00
2023-05-10T08:57:53.957Z,13552.00
2023-05-10T08:58:53.702Z,13976.00
2023-05-10T08:59:53.798Z,14464.00
2023-05-10T09:00:53.791Z,15368.00
2023-05-10T09:01:53.695Z,16168.00
2023-05-10T09:02:53.712Z,16960.00
2023-05-10T09:03:53.696Z,17568.00
2023-05-10T09:04:53.790Z,17760.00
2023-05-10T09:05:53.643Z,17856.00
2023-05-10T09:06:53.616Z,18016.00
2023-05-10T09:07:53.596Z,17696.00
2023-05-10T09:08:53.657Z,17216.00
2023-05-10T09:09:53.573Z,16864.00
2023-05-10T09:10:53.564Z,17024.00
2023-05-10T09:11:53.557Z,17568.00
2023-05-10T09:12:53.549Z,18208.00
2023-05-10T09:13:53.601Z,18528.00
2023-05-10T09:14:53.520Z,18944.00
2023-05-10T09:15:53.485Z,19488.00
2023-05-10T09:16:53.531Z,19776.00
2023-05-10T09:17:53.534Z,19840.00
2023-05-10T09:18:53.491Z,19808.00
2023-05-10T09:19:53.503Z,19584.00
2023-05-10T09:20:53.458Z,19456.00
2023-05-10T09:21:53.469Z,19424.00
2023-05-10T09:22:53.432Z,19168.00
2023-05-10T09:23:53.426Z,18816.00
2023-05-10T09:24:53.404Z,18592.00
2023-05-10T09:25:53.458Z,18560.00
2023-05-10T09:26:53.425Z,18528.00
2023-05-10T09:27:53.405Z,18304.00
2023-05-10T09:28:53.351Z,18528.00
2023-05-10T09:29:53.349Z,18560.00
2023-05-10T09:30:53.367Z,18080.00
2023-05-10T09:31:53.413Z,17216.00
2023-05-10T09:32:53.340Z,16576.00
2023-05-10T09:33:53.319Z,15656.00
2023-05-10T09:34:53.319Z,14752.00
2023-05-10T09:35:53.299Z,13544.00
2023-05-10T09:36:53.266Z,12408.00
2023-05-10T09:37:53.273Z,11428.00
2023-05-10T09:38:53.225Z,10828.00
2023-05-10T09:39:53.290Z,10640.00
2023-05-10T09:40:53.221Z,10756.00
2023-05-10T09:41:53.198Z,11160.00
2023-05-10T09:42:53.233Z,11740.00
2023-05-10T09:43:53.173Z,12512.00
2023-05-10T09:44:53.180Z,13364.00
2023-05-10T09:45:53.223Z,14160.00
2023-05-10T09:46:53.169Z,14940.00
2023-05-10T09:47:53.211Z,15800.00
2023-05-10T09:48:53.361Z,16832.00
2023-05-10T09:49:53.138Z,17664.00
2023-05-10T09:50:53.106Z,18336.00
2023-05-10T09:51:53.095Z,18688.00
2023-05-10T09:52:53.118Z,18944.00
2023-05-10T09:53:53.122Z,19136.00
2023-05-10T09:54:53.066Z,19616.00
2023-05-10T09:55:53.039Z,20256.00
2023-05-10T09:56:53.059Z,20896.00
2023-05-10T09:57:53.031Z,20992.00
2023-05-10T09:58:53.073Z,21088.00
2023-05-10T09:59:53.008Z,20576.00
2023-05-10T10:00:52.992Z,20000.00
2023-05-10T10:01:52.994Z,19552.00
2023-05-10T10:02:53.004Z,19328.00
2023-05-10T10:03:52.967Z,18752.00
2023-05-10T10:04:53.006Z,18240.00
2023-05-10T10:05:52.963Z,17824.00
2023-05-10T10:06:52.967Z,17376.00
2023-05-10T10:07:52.899Z,16800.00
2023-05-10T10:08:54.932Z,16256.00
2023-05-10T10:09:52.902Z,15456.00
2023-05-10T10:10:52.900Z,15408.00
2023-05-10T10:11:53.172Z,16128.00
2023-05-10T10:12:52.851Z,16960.00
2023-05-10T10:13:52.884Z,17376.00
2023-05-10T10:14:52.950Z,17792.00
2023-05-10T10:15:52.876Z,17568.00
2023-05-10T10:17:06.383Z,18400.00
2023-05-10T10:17:53.870Z,19200.00
2023-05-10T10:18:52.884Z,19584.00
2023-05-10T10:19:52.768Z,19968.00
2023-05-10T10:20:52.801Z,20480.00
2023-05-10T10:21:52.772Z,20800.00
2023-05-10T10:22:52.906Z,17984.00
2023-05-10T10:23:52.716Z,16160.00
2023-05-10T10:24:52.951Z,13524.00
2023-05-10T10:25:52.692Z,11320.00
2023-05-10T10:26:52.756Z,10368.00
2023-05-10T10:27:52.749Z,9760.00
2023-05-10T10:28:52.702Z,9064.00
2023-05-10T10:29:52.672Z,8372.00
2023-05-10T10:30:52.661Z,8148.00
2023-05-10T10:31:52.739Z,8116.00
2023-05-10T10:32:52.696Z,8304.00
2023-05-10T10:33:52.652Z,8644.00
2023-05-10T10:34:52.652Z,8928.00
2023-05-10T10:35:52.674Z,9348.00
2023-05-10T10:36:52.583Z,10252.00
2023-05-10T10:37:52.565Z,11028.00
2023-05-10T10:38:52.585Z,11644.00
2023-05-10T10:39:52.536Z,12136.00
2023-05-10T10:40:52.593Z,12344.00
2023-05-10T10:41:52.529Z,12400.00
2023-05-10T10:42:52.520Z,12272.00
2023-05-10T10:43:52.499Z,11900.00
2023-05-10T10:44:52.488Z,11372.00
2023-05-10T10:45:52.536Z,10652.00
2023-05-10T10:46:52.495Z,9876.00
2023-05-10T10:47:52.480Z,8712.00
2023-05-10T10:48:52.446Z,7536.00
2023-05-10T10:49:52.452Z,6764.00
2023-05-10T10:50:52.445Z,5792.00
2023-05-10T10:51:52.436Z,4748.00
2023-05-10T10:52:52.414Z,3760.00
2023-05-10T10:53:52.380Z,2960.00
2023-05-10T10:54:52.622Z,2440.00
2023-05-10T10:55:52.374Z,2368.00
2023-05-10T10:56:52.383Z,2412.00
2023-05-10T10:57:52.351Z,2496.00
2023-05-10T10:58:52.324Z,2536.00
2023-05-10T10:59:52.308Z,2552.00
2023-05-10T11:00:52.360Z,2604.00
2023-05-10T11:01:52.309Z,2736.00
2023-05-10T11:02:52.359Z,2764.00
2023-05-10T11:03:52.367Z,3024.00
2023-05-10T11:04:52.261Z,3336.00
2023-05-10T11:05:52.291Z,3520.00
2023-05-10T11:06:52.474Z,3728.00
2023-05-10T11:07:52.224Z,3860.00
2023-05-10T11:08:52.203Z,4016.00
2023-05-10T11:09:52.229Z,4200.00
2023-05-10T11:10:52.201Z,4328.00
2023-05-10T11:11:52.231Z,4456.00
2023-05-10T11:12:52.195Z,4476.00
2023-05-10T11:13:52.169Z,4748.00
2023-05-10T11:14:52.174Z,5276.00
2023-05-10T11:15:52.121Z,5864.00
2023-05-10T11:16:52.190Z,6540.00
2023-05-10T11:17:52.157Z,7300.00
2023-05-10T11:18:52.111Z,7740.00
2023-05-10T11:19:52.086Z,8160.00
2023-05-10T11:20:52.106Z,8736.00
2023-05-10T11:21:52.126Z,8744.00
2023-05-10T11:22:52.061Z,7084.00
2023-05-10T11:23:52.051Z,5036.00
2023-05-10T11:24:52.021Z,3436.00
2023-05-10T11:25:52.042Z,2400.00
2023-05-10T11:26:51.999Z,1680.00
2023-05-10T11:27:52.026Z,1188.00
2023-05-10T11:28:51.967Z,932.00
2023-05-10T11:29:51.991Z,952.00
2023-05-10T11:30:53.064Z,1032.00
2023-05-10T11:31:51.963Z,1188.00
2023-05-10T11:32:51.979Z,1380.00
2023-05-10T11:33:51.914Z,1540.00
2023-05-10T11:34:51.913Z,1616.00
2023-05-10T11:35:51.936Z,1796.00
2023-05-10T11:36:51.880Z,2032.00
2023-05-10T11:37:51.889Z,2240.00
2023-05-10T11:38:51.898Z,2404.00
2023-05-10T11:39:51.872Z,2524.00
2023-05-10T11:40:51.832Z,2700.00
2023-05-10T11:41:51.879Z,2888.00
2023-05-10T11:42:51.822Z,3080.00
2023-05-10T11:43:51.844Z,3288.00
2023-05-10T11:44:51.818Z,3508.00
2023-05-10T11:45:51.861Z,3672.00
2023-05-10T11:46:51.860Z,3812.00
2023-05-10T11:47:51.765Z,3968.00
2023-05-10T11:48:51.801Z,4136.00
2023-05-10T11:49:51.802Z,4272.00
2023-05-10T11:50:51.726Z,4420.00
2023-05-10T11:51:51.735Z,4576.00
2023-05-10T11:52:51.706Z,4796.00
2023-05-10T11:53:51.705Z,4940.00
2023-05-10T11:54:51.707Z,4992.00
2023-05-10T11:55:51.711Z,5004.00
2023-05-10T11:56:51.651Z,4960.00
2023-05-10T11:57:51.649Z,4988.00
2023-05-10T11:58:51.687Z,5080.00
2023-05-10T11:59:51.634Z,5116.00
2023-05-10T12:00:51.603Z,5128.00
2023-05-10T12:01:51.608Z,5172.00
2023-05-10T12:02:51.670Z,5120.00
2023-05-10T12:03:51.720Z,5044.00
2023-05-10T12:04:51.611Z,5012.00
2023-05-10T12:05:51.550Z,4988.00
2023-05-10T12:06:51.603Z,4932.00
2023-05-10T12:07:51.521Z,4840.00
2023-05-10T12:08:51.524Z,4788.00
2023-05-10T12:09:51.532Z,4764.00
2023-05-10T12:10:51.487Z,4772.00
2023-05-10T12:11:51.489Z,4788.00
2023-05-10T12:12:51.508Z,4820.00
2023-05-10T12:13:51.689Z,4880.00
2023-05-10T12:14:51.506Z,4928.00
2023-05-10T12:15:51.443Z,4984.00
2023-05-10T12:16:51.534Z,5084.00
2023-05-10T12:17:51.492Z,5200.00
2023-05-10T12:18:51.436Z,5300.00
2023-05-10T12:19:51.396Z,5352.00
2023-05-10T12:20:51.413Z,5420.00